Flight Track Log - Related Links

Times and Time Zones

All times are in EDT time to prevent confusion due to time zone crossing. See the AAL1326 flight status page for this flight to view local times or setup timezone preferences in your user account.

Time Position Orientation Groundspeed Altitude Reporting Facility
EDT Latitude Longitude Course Direction KTS MPH feet Rate Location/Type
Sun 06:55:57 PM 41.9840 -87.8850 90° East 166 191 1,000  Level FlightAware ADS-B
Sun 06:56:22 PM 41.9770 -87.8630 113° Southeast 169 194 2,200 2,291 Climbing FlightAware ADS-B
Sun 06:56:52 PM 41.9550 -87.8390 141° Southeast 217 250 3,100 2,073 Climbing FlightAware ADS-B
Sun 06:57:17 PM 41.9340 -87.8160 141° Southeast 244 281 4,100 2,073 Climbing FlightAware ADS-B
Sun 06:57:47 PM 41.9070 -87.7870 141° Southeast 255 293 5,000 1,200 Climbing FlightAware ADS-B
Sun 06:58:02 PM 41.8890 -87.7800 164° South 261 300 5,000  Level FlightAware ADS-B
Sun 06:58:27 PM 41.8600 -87.7790 179° South 262 302 5,000  Level FlightAware ADS-B
Sun 06:58:57 PM 41.8240 -87.7800 181° South 261 300 5,000 667 Level FlightAware ADS-B
Sun 06:59:12 PM 41.8040 -87.7810 182° South 267 307 5,500 2,850 Climbing FlightAware ADS-B
Sun 06:59:37 PM 41.7740 -87.7810 180° South 268 308 6,900 3,382 Climbing FlightAware ADS-B
Sun 07:00:07 PM 41.7370 -87.7780 177° South 270 311 8,600 3,257 Climbing FlightAware ADS-B
Sun 07:00:47 PM 41.6860 -87.7690 172° South 288 331 10,700 2,400 Climbing FlightAware ADS-B
Sun 07:01:32 PM 41.6230 -87.7590 173° South 332 382 12,000 2,047 Climbing FlightAware ADS-B
Sun 07:02:12 PM 41.5600 -87.7420 169° South 351 404 13,600 2,682 Climbing FlightAware ADS-B
Sun 07:02:57 PM 41.4860 -87.7150 165° South 364 419 15,800 2,541 Climbing FlightAware ADS-B
Sun 07:03:37 PM 41.4200 -87.6900 164° South 379 436 17,200 2,250 Climbing FlightAware ADS-B
Sun 07:04:17 PM 41.3550 -87.6650 164° South 386 444 18,800 2,259 Climbing FlightAware ADS-B
Sun 07:05:02 PM 41.2750 -87.6340 164° South 400 460 20,400 2,188 Climbing FlightAware ADS-B
Sun 07:05:42 PM 41.2010 -87.6060 164° South 407 468 21,900 2,100 Climbing FlightAware ADS-B
Sun 07:06:22 PM 41.1300 -87.5790 164° South 410 472 23,200 1,971 Climbing FlightAware ADS-B
Sun 07:06:52 PM 41.0730 -87.5570 164° South 415 478 24,200 1,920 Climbing FlightAware ADS-B
Sun 07:07:37 PM 40.9900 -87.5250 164° South 421 484 25,600 1,765 Climbing FlightAware ADS-B
Sun 07:08:17 PM 40.9120 -87.4960 164° South 426 490 26,700 1,543 Climbing FlightAware ADS-B
Sun 07:08:47 PM 40.8580 -87.4760 164° South 431 496 27,400 1,457 Climbing FlightAware ADS-B
Sun 07:09:27 PM 40.7810 -87.4460 164° South 436 502 28,400 1,371 Climbing FlightAware ADS-B
Sun 07:09:57 PM 40.7280 -87.4270 165° South 439 505 29,000 1,457 Climbing FlightAware ADS-B
Sun 07:10:37 PM 40.6480 -87.3970 164° South 437 503 30,100 1,725 Climbing FlightAware ADS-B
Sun 07:11:17 PM 40.5710 -87.3680 164° South 431 496 31,300 1,765 Climbing FlightAware ADS-B
Sun 07:12:02 PM 40.4780 -87.3330 164° South 428 493 32,600 1,714 Climbing FlightAware ADS-B
Sun 07:12:27 PM 40.4310 -87.3160 165° South 425 489 33,300 1,886 Climbing FlightAware ADS-B
Sun 07:13:12 PM 40.3470 -87.2840 164° South 411 473 34,800 1,976 Climbing FlightAware ADS-B
Sun 07:13:52 PM 40.2770 -87.2580 164° South 396 456 36,100 1,760 Climbing FlightAware ADS-B
Sun 07:14:27 PM 40.2180 -87.2360 164° South 387 445 37,000 635 Climbing FlightAware ADS-B
Sun 07:15:17 PM 40.1320 -87.2050 165° South 389 448 37,000  Level FlightAware ADS-B
Sun 07:15:57 PM 40.0610 -87.1800 165° South 390 449 37,000  Level FlightAware ADS-B
Sun 07:16:42 PM 39.9820 -87.1530 165° South 389 448 37,000  Level FlightAware ADS-B
Sun 07:17:22 PM 39.9140 -87.1260 163° South 389 448 37,000  Level FlightAware ADS-B
Sun 07:18:02 PM 39.8490 -87.1020 164° South 389 448 37,000  Level FlightAware ADS-B
Sun 07:18:42 PM 39.7810 -87.0760 164° South 389 448 37,000  Level FlightAware ADS-B
Sun 07:19:42 PM 39.6730 -87.0360 164° South 387 445 37,000  Level FlightAware ADS-B
Sun 07:20:27 PM 39.5930 -87.0080 165° South 388 447 37,000  Level FlightAware ADS-B
Sun 07:21:07 PM 39.5250 -86.9830 164° South 390 449 37,000  Level FlightAware ADS-B
Sun 07:21:47 PM 39.4520 -86.9570 165° South 391 450 37,000  Level FlightAware ADS-B
Sun 07:22:32 PM 39.3740 -86.9280 164° South 393 452 37,000  Level FlightAware ADS-B
Sun 07:23:12 PM 39.3040 -86.9030 165° South 394 453 37,000  Level FlightAware ADS-B
Sun 07:23:52 PM 39.2340 -86.8780 165° South 393 452 37,000  Level FlightAware ADS-B
Sun 07:24:37 PM 39.1580 -86.8460 162° South 390 449 37,000  Level FlightAware ADS-B
Sun 07:25:17 PM 39.0940 -86.8030 152° Southeast 390 449 37,000  Level FlightAware ADS-B
Sun 07:25:47 PM 39.0460 -86.7710 153° Southeast 392 451 37,000  Level FlightAware ADS-B
Sun 07:26:27 PM 38.9860 -86.7300 152° Southeast 394 453 37,000  Level FlightAware ADS-B
Sun 07:27:12 PM 38.9090 -86.6780 152° Southeast 396 456 37,000  Level FlightAware ADS-B
Sun 07:27:52 PM 38.8430 -86.6340 153° Southeast 398 458 37,000  Level FlightAware ADS-B
Sun 07:28:37 PM 38.7720 -86.5860 152° Southeast 396 456 37,000  Level FlightAware ADS-B
Sun 07:29:17 PM 38.7060 -86.5410 152° Southeast 395 455 37,000  Level FlightAware ADS-B
Sun 07:29:57 PM 38.6430 -86.4990 152° Southeast 397 457 37,000  Level FlightAware ADS-B
Sun 07:30:37 PM 38.5760 -86.4540 152° Southeast 400 460 37,000  Level FlightAware ADS-B
Sun 07:31:22 PM 38.5010 -86.4040 152° Southeast 404 465 37,000  Level FlightAware ADS-B
Sun 07:32:02 PM 38.4340 -86.3600 153° Southeast 407 468 37,000  Level FlightAware ADS-B
Sun 07:32:47 PM 38.3570 -86.3090 153° Southeast 411 473 37,000  Level FlightAware ADS-B
Sun 07:33:12 PM 38.3160 -86.2810 152° Southeast 414 476 37,000  Level FlightAware ADS-B
Sun 07:33:57 PM 38.2380 -86.2300 153° Southeast 417 480 37,000  Level FlightAware ADS-B
Sun 07:34:37 PM 38.1680 -86.1840 153° Southeast 420 483 37,000  Level FlightAware ADS-B
Sun 07:35:17 PM 38.0980 -86.1380 153° Southeast 423 487 37,000  Level FlightAware ADS-B
Sun 07:36:02 PM 38.0230 -86.0890 153° Southeast 425 489 37,000  Level FlightAware ADS-B
Sun 07:36:42 PM 37.9500 -86.0410 153° Southeast 418 481 37,000  Level FlightAware ADS-B
Sun 07:37:27 PM 37.8770 -85.9920 152° Southeast 417 480 37,000  Level FlightAware ADS-B
Sun 07:38:07 PM 37.8080 -85.9470 153° Southeast 418 481 37,000  Level FlightAware ADS-B
Sun 07:38:47 PM 37.7390 -85.9020 153° Southeast 421 484 37,000  Level FlightAware ADS-B
Sun 07:39:22 PM 37.6780 -85.8630 153° Southeast 423 487 37,000  Level FlightAware ADS-B
Sun 07:39:36 PM 37.6485 -85.8438 153° Southeast 424 488 37,000  Level FlightAware ADS-B
Sun 07:40:07 PM 37.5990 -85.8120 153° Southeast 426 490 37,000  Level FlightAware ADS-B
Sun 07:40:46 PM 37.5252 -85.7642 153° Southeast 428 493 37,000  Level FlightAware ADS-B
Sun 07:41:20 PM 37.4662 -85.7258 153° Southeast 429 494 37,000  Level FlightAware ADS-B
Sun 07:41:55 PM 37.4035 -85.6851 153° Southeast 431 496 37,000  Level FlightAware ADS-B
Sun 07:42:47 PM 37.3220 -85.6330 153° Southeast 431 496 37,000  Level FlightAware ADS-B
Sun 07:43:37 PM 37.2260 -85.5710 153° Southeast 430 495 37,000  Level FlightAware ADS-B
Sun 07:44:02 PM 37.1786 -85.5407 153° Southeast 431 496 37,000  Level FlightAware ADS-B
Sun 07:44:32 PM 37.1254 -85.5066 153° Southeast 430 495 37,000  Level FlightAware ADS-B
Sun 07:45:06 PM 37.0661 -85.4689 153° Southeast 431 496 37,000  Level FlightAware ADS-B
Sun 07:45:42 PM 37.0100 -85.4330 153° Southeast 430 495 37,000  Level FlightAware ADS-B
Sun 07:45:55 PM 36.9784 -85.4130 153° Southeast 430 495 37,000  Level FlightAware ADS-B
Sun 07:46:25 PM 36.9249 -85.3790 153° Southeast 430 495 37,000  Level FlightAware ADS-B
Sun 07:46:56 PM 36.8709 -85.3448 153° Southeast 429 494 37,000  Level FlightAware ADS-B
Sun 07:47:32 PM 36.8100 -85.3060 153° Southeast 426 490 37,000  Level FlightAware ADS-B
Sun 07:47:58 PM 36.7606 -85.2748 153° Southeast 429 494 37,000  Level FlightAware ADS-B
Sun 07:48:29 PM 36.7074 -85.2412 153° Southeast 424 488 37,000  Level FlightAware ADS-B
Sun 07:48:59 PM 36.6543 -85.2076 153° Southeast 424 488 37,000  Level FlightAware ADS-B
Sun 07:49:38 PM 36.5824 -85.1742 160° South 425 489 37,000  Level FlightAware ADS-B
Sun 07:50:10 PM 36.5217 -85.1582 168° South 427 491 37,000  Level FlightAware ADS-B
Sun 07:50:45 PM 36.4540 -85.1407 168° South 427 491 37,000  Level FlightAware ADS-B
Sun 07:51:16 PM 36.3936 -85.1250 168° South 427 491 37,000  Level FlightAware ADS-B
Sun 07:51:47 PM 36.3339 -85.1098 168° South 427 491 37,000  Level FlightAware ADS-B
Sun 07:52:28 PM 36.2533 -85.0891 168° South 429 494 37,000  Level FlightAware ADS-B
Sun 07:52:59 PM 36.1938 -85.0738 168° South 433 498 37,000  Level FlightAware ADS-B
Sun 07:53:30 PM 36.1320 -85.0580 168° South 433 498 37,000  Level FlightAware ADS-B
Sun 07:54:01 PM 36.0723 -85.0426 168° South 432 497 37,000  Level FlightAware ADS-B
Sun 07:54:46 PM 35.9847 -85.0200 168° South 431 496 37,000  Level FlightAware ADS-B
Sun 07:55:16 PM 35.9260 -85.0050 168° South 430 495 37,000  Level FlightAware ADS-B
Sun 07:55:46 PM 35.8673 -84.9900 168° South 430 495 37,000  Level FlightAware ADS-B
Sun 07:56:20 PM 35.8011 -84.9732 168° South 432 497 37,000  Level FlightAware ADS-B
Sun 07:56:50 PM 35.7421 -84.9583 168° South 434 499 37,000  Level FlightAware ADS-B
Sun 07:57:20 PM 35.6830 -84.9433 168° South 433 498 37,000  Level FlightAware ADS-B
Sun 07:57:50 PM 35.6233 -84.9282 168° South 434 499 37,000  Level FlightAware ADS-B
Sun 07:58:21 PM 35.5627 -84.9127 168° South 436 502 37,000  Level FlightAware ADS-B
Sun 07:58:51 PM 35.5026 -84.8975 168° South 439 505 37,000  Level FlightAware ADS-B
Sun 07:59:22 PM 35.4424 -84.8822 168° South 440 506 37,000  Level FlightAware ADS-B
Sun 07:59:52 PM 35.3818 -84.8672 169° South 438 504 37,000  Level FlightAware ADS-B
Sun 08:00:22 PM 35.3216 -84.8522 169° South 435 501 37,000  Level FlightAware ADS-B
Sun 08:00:53 PM 35.2620 -84.8372 168° South 432 497 37,000 492 Level FlightAware ADS-B
Sun 08:01:23 PM 35.2036 -84.8225 168° South 424 488 37,500 1,400 Climbing FlightAware ADS-B
Sun 08:01:53 PM 35.1461 -84.8078 168° South 411 473 38,400 1,400 Climbing FlightAware ADS-B
Sun 08:02:23 PM 35.0907 -84.7938 168° South 405 466 38,900 590 Climbing FlightAware ADS-B
Sun 08:02:54 PM 35.0352 -84.7800 168° South 409 471 39,000 98 Climbing FlightAware ADS-B
Sun 08:03:24 PM 34.9785 -84.7660 169° South 415 478 39,000  Level FlightAware ADS-B
Sun 08:03:54 PM 34.9210 -84.7519 169° South 419 482 39,000  Level FlightAware ADS-B
Sun 08:04:27 PM 34.8750 -84.7400 168° South 412 474 39,000  Level FlightAware ADS-B
Sun 08:04:36 PM 34.8422 -84.7322 169° South 421 484 39,000  Level FlightAware ADS-B
Sun 08:05:12 PM 34.7910 -84.7190 168° South 414 476 39,000  Level FlightAware ADS-B
Sun 08:05:52 PM 34.7060 -84.6980 169° South 423 487 39,000  Level FlightAware ADS-B
Sun 08:06:32 PM 34.6300 -84.6800 169° South 414 476 39,000  Level FlightAware ADS-B
Sun 08:07:17 PM 34.5440 -84.6580 168° South 412 474 39,000  Level FlightAware ADS-B
Sun 08:07:57 PM 34.4680 -84.6390 168° South 411 473 39,000  Level FlightAware ADS-B
Sun 08:08:19 PM 34.4151 -84.6265 169° South 419 482 39,000  Level FlightAware ADS-B
Sun 08:08:52 PM 34.3523 -84.6111 169° South 418 481 39,000  Level FlightAware ADS-B
Sun 08:12:22 PM 33.9550 -84.5140 169° South 424 488 39,000  Level FlightAware ADS-B
Sun 08:13:02 PM 33.8790 -84.4910 166° South 422 486 39,000  Level FlightAware ADS-B
Sun 08:14:39 PM 33.6893 -84.4138 161° South 434 499 39,000  Level FlightAware ADS-B
Sun 08:15:13 PM 33.6248 -84.3875 161° South 438 504 39,000  Level FlightAware ADS-B
Sun 08:15:54 PM 33.5464 -84.3561 162° South 436 502 39,000  Level FlightAware ADS-B
Sun 08:16:48 PM 33.4436 -84.3150 162° South 434 499 39,000  Level FlightAware ADS-B
Sun 08:18:07 PM 33.2915 -84.2539 161° South 435 501 39,000  Level FlightAware ADS-B
Sun 08:18:42 PM 33.2310 -84.2300 162° South 438 504 39,000  Level FlightAware ADS-B
Sun 08:19:22 PM 33.1570 -84.2000 161° South 437 503 39,000  Level FlightAware ADS-B
Sun 08:20:07 PM 33.0660 -84.1640 162° South 434 499 39,000  Level FlightAware ADS-B
Sun 08:20:47 PM 32.9910 -84.1340 161° South 434 499 39,000  Level FlightAware ADS-B
Sun 08:21:27 PM 32.9110 -84.1020 161° South 433 498 39,000  Level FlightAware ADS-B
Sun 08:22:12 PM 32.8360 -84.0720 161° South 433 498 39,000  Level FlightAware ADS-B
Sun 08:22:52 PM 32.7710 -84.0460 161° South 433 498 39,000  Level FlightAware ADS-B
Sun 08:23:42 PM 32.6910 -84.0130 161° South 433 498 39,000  Level FlightAware ADS-B
Sun 08:24:45 PM 32.5503 -83.9625 161° South 440 506 39,000  Level Atlanta Center
Sun 08:25:45 PM 32.4375 -83.9183 162° South 440 506 39,000  Level Atlanta Center
Sun 08:26:46 PM 32.3225 -83.8717 161° South 440 506 39,000  Level Atlanta Center
Sun 08:28:27 PM 32.1153 -83.7903 162° South 440 506 39,000  Level Jacksonville Center
Sun 08:29:27 PM 32.0008 -83.7450 161° South 440 506 39,000  Level Jacksonville Center
Sun 08:30:27 PM 31.8864 -83.7000 162° South 440 506 39,000 -50 Level Jacksonville Center
Sun 08:31:27 PM 31.7822 -83.6528 159° South 440 506 38,900  Descending Jacksonville Center
Sun 08:32:27 PM 31.6633 -83.6103 163° South 440 506 39,000 50 Climbing Jacksonville Center
Sun 08:33:27 PM 31.5425 -83.5678 163° South 446 513 39,000  Level Jacksonville Center
Sun 08:34:27 PM 31.4281 -83.5256 163° South 440 506 39,000  Level Jacksonville Center
Sun 08:35:27 PM 31.3133 -83.4836 163° South 435 501 39,000  Level Jacksonville Center
Sun 08:36:27 PM 31.1986 -83.4392 162° South 435 501 39,000  Level Jacksonville Center
Sun 08:37:27 PM 31.0861 -83.3972 162° South 435 501 39,000  Level Jacksonville Center
Sun 08:38:27 PM 30.9714 -83.3531 162° South 435 501 39,000  Level Jacksonville Center
Sun 08:39:27 PM 30.8567 -83.3064 161° South 435 501 39,000 -50 Level Jacksonville Center
Sun 08:40:27 PM 30.7483 -83.2600 160° South 428 493 38,900 -50 Descending Jacksonville Center
Sun 08:41:27 PM 30.6336 -83.2039 157° South 433 498 38,900 50 Level Jacksonville Center
Sun 08:42:27 PM 30.5189 -83.1458 156° South 438 504 39,000 50 Climbing Jacksonville Center
Sun 08:43:27 PM 30.4042 -83.0878 156° South 438 504 39,000  Level Jacksonville Center
Sun 08:44:27 PM 30.2914 -83.0344 158° South 443 510 39,000  Level Jacksonville Center
Sun 08:50:27 PM 29.5870 -82.6860 158° South 451 519 39,000  Level FlightAware ADS-B
Sun 08:51:12 PM 29.5030 -82.6450 157° South 450 518 39,000  Level FlightAware ADS-B
Sun 08:52:07 PM 29.4020 -82.5960 157° South 450 518 39,000  Level FlightAware ADS-B
Sun 08:53:02 PM 29.2900 -82.5420 157° South 448 516 39,000  Level FlightAware ADS-B
Sun 08:53:42 PM 29.2170 -82.5060 157° South 449 517 39,000  Level FlightAware ADS-B
Sun 08:54:27 PM 29.1250 -82.4620 157° South 447 514 39,000  Level FlightAware ADS-B
Sun 08:55:02 PM 29.0560 -82.4490 171° South 425 489 39,000  Level FlightAware ADS-B
Sun 08:55:47 PM 28.9710 -82.4540 183° South 422 486 39,000  Level FlightAware ADS-B
Sun 08:56:32 PM 28.8800 -82.4590 183° South 421 484 39,000  Level FlightAware ADS-B
Sun 08:57:12 PM 28.8040 -82.4630 183° South 420 483 39,000  Level FlightAware ADS-B
Sun 08:57:57 PM 28.7130 -82.4690 183° South 419 482 39,000  Level FlightAware ADS-B
Sun 08:58:37 PM 28.6360 -82.4730 183° South 418 481 39,000  Level FlightAware ADS-B
Sun 08:59:17 PM 28.5590 -82.4770 183° South 416 479 39,000  Level FlightAware ADS-B
Sun 09:00:02 PM 28.4730 -82.4820 183° South 416 479 39,000  Level FlightAware ADS-B
Sun 09:00:42 PM 28.3960 -82.4860 183° South 415 478 39,000  Level FlightAware ADS-B
Sun 09:01:22 PM 28.3200 -82.4910 183° South 414 476 39,000  Level FlightAware ADS-B
Sun 09:02:07 PM 28.2320 -82.4960 183° South 415 478 39,000  Level FlightAware ADS-B
Sun 09:02:47 PM 28.1580 -82.5000 183° South 417 480 39,000  Level FlightAware ADS-B
Sun 09:03:32 PM 28.0700 -82.5060 183° South 417 480 39,000  Level FlightAware ADS-B
Sun 09:04:12 PM 27.9930 -82.5100 183° South 422 486 39,000  Level FlightAware ADS-B
Sun 09:04:57 PM 27.9130 -82.4960 171° South 441 507 39,000  Level FlightAware ADS-B
Sun 09:05:37 PM 27.8240 -82.4630 162° South 447 514 39,000  Level FlightAware ADS-B
Sun 09:06:17 PM 27.7430 -82.4330 162° South 444 511 39,000  Level FlightAware ADS-B
Sun 09:07:02 PM 27.6580 -82.4010 162° South 440 506 39,000  Level FlightAware ADS-B
Sun 09:07:42 PM 27.5810 -82.3730 162° South 438 504 39,000  Level FlightAware ADS-B
Sun 09:08:22 PM 27.5040 -82.3450 162° South 438 504 39,000 -212 Level FlightAware ADS-B
Sun 09:09:07 PM 27.4170 -82.3130 162° South 434 499 38,700 -675 Descending FlightAware ADS-B
Sun 09:09:42 PM 27.3520 -82.2890 162° South 434 499 38,100 -918 Descending FlightAware ADS-B
Sun 09:10:32 PM 27.2610 -82.2560 162° South 442 509 37,400 -933 Descending FlightAware ADS-B
Sun 09:11:12 PM 27.1760 -82.2240 161° South 452 520 36,700 -950 Descending FlightAware ADS-B
Sun 09:12:32 PM 27.0560 -82.1060 139° Southeast 477 549 35,500 -1,200 Descending FlightAware ADS-B
Sun 09:13:17 PM 26.9750 -82.0090 133° Southeast 487 560 34,200 -2,533 Descending FlightAware ADS-B
Sun 09:14:02 PM 26.9040 -81.9270 134° Southeast 494 568 31,700 -3,035 Descending FlightAware ADS-B
Sun 09:14:42 PM 26.8430 -81.8540 133° Southeast 493 567 29,900 -2,337 Descending FlightAware ADS-B
Sun 09:15:37 PM 26.7700 -81.7640 132° Southeast 474 545 28,000 -2,820 Descending FlightAware ADS-B
Sun 09:16:22 PM 26.6940 -81.6720 133° Southeast 470 541 25,200 -3,548 Descending FlightAware ADS-B
Sun 09:17:32 PM 26.5950 -81.5550 133° Southeast 446 513 21,200 -3,312 Descending FlightAware ADS-B
Sun 09:18:27 PM 26.5220 -81.4660 133° Southeast 429 494 18,300 -3,032 Descending FlightAware ADS-B
Sun 09:19:07 PM 26.4640 -81.3960 133° Southeast 410 472 16,400 -2,612 Descending FlightAware ADS-B
Sun 09:19:52 PM 26.4060 -81.3260 133° Southeast 409 471 14,600 -2,259 Descending FlightAware ADS-B
Sun 09:20:32 PM 26.3540 -81.2650 134° Southeast 390 449 13,200 -2,118 Descending FlightAware ADS-B
Sun 09:21:17 PM 26.3000 -81.2010 133° Southeast 363 418 11,600 -1,906 Descending FlightAware ADS-B
Sun 09:21:57 PM 26.2560 -81.1470 132° Southeast 344 396 10,500 -1,200 Descending FlightAware ADS-B
Sun 09:22:37 PM 26.2140 -81.0970 133° Southeast 310 357 10,000 -943 Descending FlightAware ADS-B
Sun 09:23:07 PM 26.1850 -81.0630 134° Southeast 291 335 9,400 -1,400 Descending FlightAware ADS-B
Sun 09:23:37 PM 26.1570 -81.0300 133° Southeast 283 326 8,600 -1,745 Descending FlightAware ADS-B
Sun 09:24:02 PM 26.1340 -81.0030 133° Southeast 288 331 7,800 -1,855 Descending FlightAware ADS-B
Sun 09:24:32 PM 26.1090 -80.9690 129° Southeast 295 339 6,900 -1,733 Descending FlightAware ADS-B
Sun 09:24:47 PM 26.1030 -80.9460 106° East 299 344 6,500 -1,350 Descending FlightAware ADS-B
Sun 09:25:12 PM 26.1010 -80.9080 93° East 292 336 6,000 -545 Descending FlightAware ADS-B
Sun 09:25:42 PM 26.0970 -80.8640 96° East 287 330 6,000  Level FlightAware ADS-B
Sun 09:26:07 PM 26.0950 -80.8280 94° East 286 329 6,000  Level FlightAware ADS-B
Sun 09:26:37 PM 26.0920 -80.7820 94° East 286 329 6,000  Level FlightAware ADS-B
Sun 09:27:02 PM 26.0910 -80.7460 92° East 288 331 6,000  Level FlightAware ADS-B
Sun 09:27:32 PM 26.0950 -80.7010 84° East 289 333 6,000  Level FlightAware ADS-B
Sun 09:27:47 PM 26.0970 -80.6780 84° East 288 331 6,000  Level FlightAware ADS-B
Sun 09:28:17 PM 26.1020 -80.6350 83° East 288 331 6,000  Level FlightAware ADS-B
Sun 09:28:42 PM 26.1060 -80.5980 83° East 288 331 6,000  Level FlightAware ADS-B
Sun 09:29:12 PM 26.1100 -80.5550 84° East 287 330 6,000  Level FlightAware ADS-B
Sun 09:29:37 PM 26.1140 -80.5170 83° East 287 330 6,000  Level FlightAware ADS-B
Sun 09:30:07 PM 26.1180 -80.4720 84° East 287 330 6,000  Level FlightAware ADS-B
Sun 09:30:37 PM 26.1230 -80.4290 83° East 284 327 6,000  Level FlightAware ADS-B
Sun 09:31:02 PM 26.1270 -80.3930 83° East 283 326 6,000  Level FlightAware ADS-B
Sun 09:31:32 PM 26.1310 -80.3510 84° East 282 325 6,000  Level FlightAware ADS-B
Sun 09:32:07 PM 26.1360 -80.3020 84° East 282 325 6,000 -800 Level FlightAware ADS-B
Sun 09:33:17 PM 26.1450 -80.2010 84° East 281 323 4,600 -1,117 Descending FlightAware ADS-B
Sun 09:34:32 PM 26.1520 -80.0950 86° East 267 307 3,300 -786 Descending FlightAware ADS-B
Sun 09:35:42 PM 26.1410 -80.0110 98° East 212 244 2,700 -629 Descending FlightAware ADS-B
Sun 09:38:02 PM 26.0760 -80.0740 221° Southwest 149 171 1,100 -708 Descending FlightAware ADS-B
Sun 09:38:57 PM 26.0770 -80.1170 271° West 147 169 400 -565 Descending FlightAware ADS-B
Sun 09:39:27 PM 26.0770 -80.1400 270° West 147 169 300 -200 Descending FlightAware ADS-B

Login

Don't have an account? Register now (free) for customized features, flight alerts, and more!